createdAt,value
2023-03-19T00:01:35.103Z,8.20
2023-03-19T00:04:01.942Z,8.20
2023-03-19T00:06:30.010Z,8.10
2023-03-19T00:08:56.751Z,8.10
2023-03-19T00:11:23.493Z,8.10
2023-03-19T00:13:50.215Z,8.10
2023-03-19T00:16:17.185Z,8.10
2023-03-19T00:18:44.027Z,8.10
2023-03-19T00:21:11.104Z,8.00
2023-03-19T00:23:39.753Z,8.00
2023-03-19T00:26:06.571Z,8.00
2023-03-19T00:28:33.600Z,8.10
2023-03-19T00:31:08.819Z,8.10
2023-03-19T00:33:35.734Z,8.00
2023-03-19T00:36:02.485Z,8.00
2023-03-19T00:38:29.300Z,8.00
2023-03-19T00:40:57.519Z,8.00
2023-03-19T00:43:24.310Z,8.00
2023-03-19T00:45:51.084Z,8.00
2023-03-19T00:48:18.240Z,8.00
2023-03-19T00:50:45.179Z,8.00
2023-03-19T00:53:11.987Z,8.00
2023-03-19T00:55:38.781Z,7.90
2023-03-19T00:58:06.903Z,7.90
2023-03-19T01:03:00.310Z,7.90
2023-03-19T01:05:27.236Z,7.90
2023-03-19T01:07:53.982Z,7.90
2023-03-19T01:10:22.380Z,7.80
2023-03-19T01:12:49.398Z,7.80
2023-03-19T01:15:18.404Z,7.80
2023-03-19T01:17:45.394Z,7.80
2023-03-19T01:20:12.529Z,7.90
2023-03-19T01:22:39.491Z,7.80
2023-03-19T01:25:07.364Z,7.70
2023-03-19T01:27:34.243Z,7.70
2023-03-19T01:30:01.044Z,7.50
2023-03-19T01:32:29.129Z,7.40
2023-03-19T01:34:57.024Z,7.40
2023-03-19T01:37:23.852Z,7.40
2023-03-19T01:39:50.708Z,7.40
2023-03-19T01:42:17.734Z,7.30
2023-03-19T01:44:45.268Z,7.30
2023-03-19T01:47:17.908Z,7.30
2023-03-19T01:49:51.312Z,7.30
2023-03-19T01:52:18.566Z,7.20
2023-03-19T01:54:45.926Z,7.30
2023-03-19T01:57:15.768Z,7.30
2023-03-19T01:59:46.258Z,7.40
2023-03-19T02:02:17.979Z,7.40
2023-03-19T02:04:48.923Z,7.40
2023-03-19T02:07:16.659Z,7.40
2023-03-19T02:09:44.126Z,7.40
2023-03-19T02:12:12.401Z,7.40
2023-03-19T02:14:39.158Z,7.50
2023-03-19T02:17:06.357Z,7.50
2023-03-19T02:19:43.387Z,7.50
2023-03-19T02:22:12.759Z,7.50
2023-03-19T02:24:45.969Z,7.40
2023-03-19T02:27:14.085Z,7.40
2023-03-19T02:29:40.827Z,7.40
2023-03-19T02:32:07.667Z,7.40
2023-03-19T02:34:37.344Z,7.30
2023-03-19T02:37:08.822Z,7.30
2023-03-19T02:39:41.858Z,7.30
2023-03-19T02:42:10.181Z,7.30
2023-03-19T02:44:41.528Z,7.30
2023-03-19T02:47:08.481Z,7.30
2023-03-19T02:49:35.223Z,7.30
2023-03-19T02:52:02.056Z,7.40
2023-03-19T02:54:29.053Z,7.40
2023-03-19T02:56:55.796Z,7.50
2023-03-19T02:59:22.581Z,7.50
2023-03-19T03:01:50.779Z,7.50
2023-03-19T03:04:17.538Z,7.50
2023-03-19T03:06:44.764Z,7.50
2023-03-19T03:09:12.373Z,7.50
2023-03-19T03:11:39.365Z,7.50
2023-03-19T03:14:06.136Z,7.60
2023-03-19T03:16:32.983Z,7.60
2023-03-19T03:19:01.047Z,7.60
2023-03-19T03:21:27.787Z,7.70
2023-03-19T03:23:54.572Z,7.70
2023-03-19T03:26:21.315Z,7.70
2023-03-19T03:28:48.174Z,7.70
2023-03-19T03:31:14.985Z,7.70
2023-03-19T03:33:41.775Z,7.70
2023-03-19T03:36:10.050Z,7.60
2023-03-19T03:38:36.852Z,7.70
2023-03-19T03:41:03.578Z,7.60
2023-03-19T03:43:30.627Z,7.60
2023-03-19T03:45:57.496Z,7.60
2023-03-19T03:48:24.394Z,7.50
2023-03-19T03:50:51.210Z,7.50
2023-03-19T03:53:19.288Z,7.50
2023-03-19T03:55:46.020Z,7.50
2023-03-19T03:58:12.751Z,7.50
2023-03-19T04:00:39.903Z,7.40
2023-03-19T04:03:06.692Z,7.30
2023-03-19T04:05:33.473Z,7.30
2023-03-19T04:08:00.331Z,7.10
2023-03-19T04:10:28.426Z,7.10
2023-03-19T04:12:55.183Z,7.00
2023-03-19T04:15:22.046Z,7.10
2023-03-19T04:17:48.842Z,6.90
2023-03-19T04:20:15.617Z,6.90
2023-03-19T04:22:42.379Z,6.90
2023-03-19T04:25:11.165Z,6.90
2023-03-19T04:27:39.247Z,7.00
2023-03-19T04:30:06.741Z,7.10
2023-03-19T04:32:33.534Z,7.00
2023-03-19T04:35:00.275Z,7.00
2023-03-19T04:37:28.236Z,6.90
2023-03-19T04:39:54.981Z,7.00
2023-03-19T04:42:22.120Z,7.00
2023-03-19T04:44:50.176Z,7.10
2023-03-19T04:47:17.984Z,7.10
2023-03-19T04:49:47.324Z,7.20
2023-03-19T04:52:14.201Z,7.20
2023-03-19T04:54:41.005Z,7.20
2023-03-19T04:57:07.937Z,7.10
2023-03-19T04:59:34.694Z,7.20
2023-03-19T05:02:02.848Z,7.20
2023-03-19T05:04:29.602Z,7.20
2023-03-19T05:06:56.302Z,7.20
2023-03-19T05:09:23.078Z,7.20
2023-03-19T05:11:49.793Z,7.20
2023-03-19T05:14:16.534Z,7.20
2023-03-19T05:16:43.262Z,7.10
2023-03-19T05:19:12.678Z,7.10
2023-03-19T05:21:39.475Z,7.10
2023-03-19T05:24:06.382Z,7.10
2023-03-19T05:26:33.114Z,7.10
2023-03-19T05:28:59.862Z,7.10
2023-03-19T05:31:27.677Z,7.00
2023-03-19T05:33:54.441Z,6.90
2023-03-19T05:36:23.267Z,6.90
2023-03-19T05:38:50.108Z,6.80
2023-03-19T05:41:16.832Z,6.90
2023-03-19T05:43:43.594Z,6.90
2023-03-19T05:46:11.445Z,6.80
2023-03-19T05:48:38.243Z,6.60
2023-03-19T05:51:05.595Z,6.60
2023-03-19T05:53:35.563Z,6.50
2023-03-19T05:56:03.318Z,6.40
2023-03-19T05:58:30.069Z,6.30
2023-03-19T06:00:56.852Z,6.30
2023-03-19T06:03:23.698Z,6.30
2023-03-19T06:05:50.923Z,6.30
2023-03-19T06:08:18.567Z,6.50
2023-03-19T06:10:47.772Z,6.60
2023-03-19T06:13:14.856Z,6.70
2023-03-19T06:18:01.390Z,6.80
2023-03-19T06:20:28.138Z,6.90
2023-03-19T06:22:54.929Z,7.00
2023-03-19T06:25:21.679Z,7.00
2023-03-19T06:27:48.435Z,7.10
2023-03-19T06:30:15.590Z,7.10
2023-03-19T06:32:42.440Z,7.10
2023-03-19T06:35:10.658Z,7.10
2023-03-19T06:37:37.532Z,7.10
2023-03-19T06:40:05.114Z,7.10
2023-03-19T06:42:32.189Z,7.10
2023-03-19T06:44:58.927Z,7.00
2023-03-19T06:47:26.085Z,7.00
2023-03-19T06:49:53.119Z,7.00
2023-03-19T06:52:21.258Z,7.10
2023-03-19T06:54:48.035Z,7.10
2023-03-19T06:57:15.015Z,7.20
2023-03-19T06:59:41.760Z,7.30
2023-03-19T07:02:10.814Z,7.40
2023-03-19T07:04:37.421Z,7.40
2023-03-19T07:07:04.177Z,7.40
2023-03-19T07:09:32.374Z,7.30
2023-03-19T07:11:59.172Z,7.30
2023-03-19T07:14:26.130Z,7.30
2023-03-19T07:16:52.950Z,7.40
2023-03-19T07:19:19.779Z,7.50
2023-03-19T07:21:46.630Z,7.60
2023-03-19T07:24:13.376Z,7.60
2023-03-19T07:26:41.512Z,7.70
2023-03-19T07:29:08.334Z,7.80
2023-03-19T07:31:35.345Z,7.70
2023-03-19T07:34:02.144Z,7.70
2023-03-19T07:36:28.957Z,7.60
2023-03-19T07:38:55.918Z,7.70
2023-03-19T07:41:25.675Z,7.70
2023-03-19T07:43:54.070Z,7.80
2023-03-19T07:46:20.984Z,7.80
2023-03-19T07:48:47.834Z,7.80
2023-03-19T07:51:14.587Z,8.00
2023-03-19T07:53:41.310Z,8.00
2023-03-19T07:56:08.162Z,8.10
2023-03-19T07:58:34.946Z,8.20
2023-03-19T08:01:03.174Z,8.10
2023-03-19T08:03:29.976Z,8.20
2023-03-19T08:05:56.703Z,8.20
2023-03-19T08:08:23.493Z,8.30
2023-03-19T08:10:50.377Z,8.50
2023-03-19T08:13:17.150Z,8.50
2023-03-19T08:15:43.856Z,8.40
2023-03-19T08:18:11.945Z,8.50
2023-03-19T08:20:38.661Z,8.50
2023-03-19T08:23:05.378Z,8.40
2023-03-19T08:25:32.205Z,8.50
2023-03-19T08:27:59.377Z,8.70
2023-03-19T08:30:26.145Z,8.80
2023-03-19T08:32:52.933Z,8.80
2023-03-19T08:35:21.086Z,8.70
2023-03-19T08:37:48.058Z,8.60
2023-03-19T08:40:14.847Z,8.90
2023-03-19T08:42:44.250Z,9.20
2023-03-19T08:45:13.630Z,9.20
2023-03-19T08:47:40.793Z,10.30
2023-03-19T08:50:08.513Z,10.60
2023-03-19T08:52:36.846Z,10.10
2023-03-19T08:55:03.975Z,9.80
2023-03-19T08:57:31.155Z,9.50
2023-03-19T08:59:58.191Z,8.90
2023-03-19T09:02:25.025Z,8.60
2023-03-19T09:04:52.032Z,9.30
2023-03-19T09:07:18.816Z,10.00
2023-03-19T09:09:46.887Z,10.00
2023-03-19T09:12:15.500Z,10.30
2023-03-19T09:14:42.835Z,11.10
2023-03-19T09:17:09.997Z,11.30
2023-03-19T09:19:36.869Z,11.40
2023-03-19T09:22:03.996Z,10.40
2023-03-19T09:24:30.749Z,9.30
2023-03-19T09:26:58.805Z,9.90
2023-03-19T09:29:25.544Z,10.50
2023-03-19T09:31:52.304Z,10.90
2023-03-19T09:34:19.055Z,11.50
2023-03-19T09:36:45.836Z,11.30
2023-03-19T09:39:12.601Z,11.10
2023-03-19T09:41:51.666Z,11.10
2023-03-19T09:44:26.997Z,10.80
2023-03-19T09:46:58.715Z,11.00
2023-03-19T09:49:28.613Z,10.50
2023-03-19T09:51:58.232Z,10.40
2023-03-19T09:54:32.064Z,10.00
2023-03-19T09:56:59.090Z,10.40
2023-03-19T09:59:30.032Z,9.90
2023-03-19T10:02:09.694Z,10.20
2023-03-19T10:04:56.959Z,9.90
2023-03-19T10:07:42.306Z,10.70
2023-03-19T10:10:28.544Z,10.60
2023-03-19T10:13:03.898Z,11.10
2023-03-19T10:15:33.582Z,11.40
2023-03-19T10:18:03.391Z,11.80
2023-03-19T10:20:38.655Z,11.50
2023-03-19T10:23:22.763Z,12.00
2023-03-19T10:25:53.999Z,12.30
2023-03-19T10:28:22.374Z,12.10
2023-03-19T10:30:58.213Z,11.90
2023-03-19T10:33:31.044Z,11.90
2023-03-19T10:36:02.086Z,11.50
2023-03-19T10:38:28.890Z,12.20
2023-03-19T10:41:05.742Z,12.30
2023-03-19T10:43:33.560Z,11.60
2023-03-19T10:46:04.177Z,11.10
2023-03-19T10:48:30.980Z,11.10
2023-03-19T10:51:00.496Z,12.40
2023-03-19T10:53:34.226Z,12.60
2023-03-19T10:56:03.269Z,12.30
2023-03-19T10:58:32.210Z,12.40
2023-03-19T11:01:06.011Z,12.90
2023-03-19T11:03:34.872Z,12.30
2023-03-19T11:06:16.091Z,12.80
2023-03-19T11:08:43.018Z,12.50
2023-03-19T11:11:23.503Z,12.10
2023-03-19T11:13:50.373Z,12.20
2023-03-19T11:16:19.637Z,11.60
2023-03-19T11:18:49.604Z,11.30
2023-03-19T11:21:25.438Z,10.70
2023-03-19T11:23:58.650Z,11.40
2023-03-19T11:26:25.400Z,11.00
2023-03-19T11:28:52.433Z,11.20
2023-03-19T11:31:28.111Z,11.20
2023-03-19T11:34:07.308Z,11.20
2023-03-19T11:36:41.594Z,10.80
2023-03-19T11:39:24.389Z,11.10
2023-03-19T11:42:11.034Z,11.70
2023-03-19T11:44:49.064Z,11.30
2023-03-19T11:47:27.623Z,11.80
2023-03-19T11:50:12.054Z,11.70
2023-03-19T11:52:49.840Z,11.80
2023-03-19T11:55:23.561Z,11.70
2023-03-19T11:58:05.552Z,11.40
2023-03-19T12:00:43.076Z,11.50
2023-03-19T12:03:30.815Z,11.30
2023-03-19T12:06:00.565Z,10.60
2023-03-19T12:08:38.906Z,11.40
2023-03-19T12:11:17.536Z,12.10
2023-03-19T12:14:17.227Z,11.60
2023-03-19T12:17:05.916Z,12.70
2023-03-19T12:19:40.932Z,13.00
2023-03-19T12:22:16.887Z,14.00
2023-03-19T12:25:02.944Z,13.60
2023-03-19T12:27:37.321Z,13.70
2023-03-19T12:30:15.501Z,13.20
2023-03-19T12:33:00.449Z,13.50
2023-03-19T12:35:33.601Z,13.50
2023-03-19T12:38:05.591Z,13.10
2023-03-19T12:40:37.022Z,13.60
2023-03-19T12:43:10.490Z,14.00
2023-03-19T12:45:42.490Z,13.90
2023-03-19T12:48:14.948Z,13.90
2023-03-19T12:50:48.005Z,14.80
2023-03-19T12:53:25.631Z,13.40
2023-03-19T12:55:57.541Z,13.90
2023-03-19T12:58:29.305Z,14.10
2023-03-19T13:01:02.562Z,14.90
2023-03-19T13:03:37.316Z,14.30
2023-03-19T13:06:12.544Z,14.20
2023-03-19T13:08:45.297Z,14.50
2023-03-19T13:11:18.235Z,14.20
2023-03-19T13:13:52.538Z,14.60
2023-03-19T13:16:31.395Z,14.20
2023-03-19T13:19:04.463Z,14.20
2023-03-19T13:21:34.501Z,13.80
2023-03-19T13:24:07.097Z,13.90
2023-03-19T13:26:34.608Z,14.00
2023-03-19T13:29:07.996Z,14.40
2023-03-19T13:31:35.938Z,13.40
2023-03-19T13:34:04.700Z,14.70
2023-03-19T13:36:37.338Z,14.80
2023-03-19T13:39:04.945Z,15.00
2023-03-19T13:42:06.148Z,14.20
2023-03-19T13:44:36.060Z,14.50
2023-03-19T13:47:27.343Z,13.30
2023-03-19T13:50:20.494Z,14.60
2023-03-19T13:52:51.723Z,14.40
2023-03-19T13:55:31.494Z,14.60
2023-03-19T13:58:12.990Z,14.00
2023-03-19T14:01:00.213Z,14.40
2023-03-19T14:03:29.913Z,14.30
2023-03-19T14:05:58.130Z,14.60
2023-03-19T14:08:28.311Z,13.90
2023-03-19T14:10:57.700Z,13.20
2023-03-19T14:13:31.012Z,12.60
2023-03-19T14:16:06.137Z,12.20
2023-03-19T14:18:33.794Z,12.40
2023-03-19T14:21:07.154Z,13.00
2023-03-19T14:23:43.081Z,13.30
2023-03-19T14:26:16.317Z,13.70
2023-03-19T14:29:01.450Z,13.60
2023-03-19T14:31:41.577Z,13.10
2023-03-19T14:34:20.163Z,13.40
2023-03-19T14:36:51.157Z,13.40
2023-03-19T14:39:23.233Z,14.10
2023-03-19T14:41:59.304Z,12.50
2023-03-19T14:44:48.369Z,13.00
2023-03-19T14:47:34.618Z,12.40
2023-03-19T14:50:33.251Z,13.00
2023-03-19T14:53:04.388Z,12.70
2023-03-19T14:55:37.458Z,12.50
2023-03-19T14:58:05.060Z,12.10
2023-03-19T15:00:41.094Z,12.30
2023-03-19T15:03:20.168Z,12.50
2023-03-19T15:05:47.919Z,12.30
2023-03-19T15:08:18.660Z,12.30
2023-03-19T15:11:01.250Z,12.50
2023-03-19T15:13:46.231Z,12.40
2023-03-19T15:16:31.774Z,12.60
2023-03-19T15:18:58.592Z,12.30
2023-03-19T15:21:25.451Z,11.90
2023-03-19T15:23:52.554Z,12.00
2023-03-19T15:26:31.769Z,12.00
2023-03-19T15:28:58.530Z,12.00
2023-03-19T15:31:50.879Z,12.00
2023-03-19T15:34:19.897Z,12.20
2023-03-19T15:36:47.721Z,12.30
2023-03-19T15:39:17.673Z,12.40
2023-03-19T15:41:49.194Z,11.70
2023-03-19T15:44:20.002Z,11.70
2023-03-19T15:46:47.506Z,11.60
2023-03-19T15:49:19.887Z,11.70
2023-03-19T15:51:48.854Z,11.30
2023-03-19T15:54:15.969Z,11.40
2023-03-19T15:56:42.857Z,11.40
2023-03-19T15:59:11.069Z,11.30
2023-03-19T16:01:38.524Z,11.40
2023-03-19T16:04:07.308Z,11.70
2023-03-19T16:06:37.601Z,11.80
2023-03-19T16:09:19.167Z,11.80
2023-03-19T16:11:46.637Z,11.90
2023-03-19T16:14:23.802Z,11.70
2023-03-19T16:16:51.632Z,11.40
2023-03-19T16:19:33.458Z,11.50
2023-03-19T16:22:02.566Z,11.50
2023-03-19T16:24:32.296Z,11.30
2023-03-19T16:26:59.526Z,11.50
2023-03-19T16:29:29.714Z,11.40
2023-03-19T16:32:00.249Z,11.10
2023-03-19T16:34:37.269Z,10.90
2023-03-19T16:37:25.242Z,10.60
2023-03-19T16:39:55.017Z,10.60
2023-03-19T16:42:38.859Z,10.60
2023-03-19T16:45:21.244Z,10.60
2023-03-19T16:47:49.464Z,10.50
2023-03-19T16:50:18.110Z,10.40
2023-03-19T16:52:47.277Z,10.30
2023-03-19T16:55:20.425Z,10.20
2023-03-19T16:57:55.014Z,10.10
2023-03-19T17:00:24.184Z,10.00
2023-03-19T17:02:51.274Z,9.90
2023-03-19T17:05:18.374Z,9.90
2023-03-19T17:07:45.096Z,9.80
2023-03-19T17:10:14.882Z,9.60
2023-03-19T17:12:45.959Z,9.50
2023-03-19T17:15:25.266Z,9.20
2023-03-19T17:17:52.268Z,9.00
2023-03-19T17:20:22.144Z,8.90
2023-03-19T17:22:48.989Z,8.80
2023-03-19T17:25:16.946Z,8.70
2023-03-19T17:27:44.329Z,8.60
2023-03-19T17:30:11.809Z,8.50
2023-03-19T17:32:45.530Z,8.30
2023-03-19T17:35:17.288Z,8.30
2023-03-19T17:37:44.809Z,8.20
2023-03-19T17:40:17.787Z,8.10
2023-03-19T17:42:44.711Z,8.00
2023-03-19T17:45:13.953Z,7.90
2023-03-19T17:47:45.022Z,7.80
2023-03-19T17:50:17.458Z,7.80
2023-03-19T17:52:45.795Z,7.80
2023-03-19T17:55:17.020Z,7.70
2023-03-19T17:57:46.533Z,7.70
2023-03-19T18:00:14.097Z,7.50
2023-03-19T18:02:43.374Z,7.40
2023-03-19T18:05:15.596Z,7.50
2023-03-19T18:07:42.776Z,7.40
2023-03-19T18:10:16.016Z,7.20
2023-03-19T18:12:42.993Z,7.10
2023-03-19T18:15:13.150Z,7.10
2023-03-19T18:17:44.029Z,7.20
2023-03-19T18:20:14.198Z,7.10
2023-03-19T18:22:42.288Z,7.10
2023-03-19T18:25:15.536Z,7.00
2023-03-19T18:27:42.327Z,6.80
2023-03-19T18:30:11.854Z,7.00
2023-03-19T18:32:39.255Z,6.90
2023-03-19T18:35:14.150Z,6.80
2023-03-19T18:37:40.946Z,6.80
2023-03-19T18:40:15.320Z,6.90
2023-03-19T18:42:42.329Z,6.90
2023-03-19T18:45:10.726Z,7.00
2023-03-19T18:47:37.608Z,7.20
2023-03-19T18:50:15.558Z,7.30
2023-03-19T18:52:42.304Z,7.30
2023-03-19T18:55:10.484Z,7.30
2023-03-19T18:57:52.369Z,7.30
2023-03-19T19:00:23.378Z,7.30
2023-03-19T19:02:51.957Z,7.30
2023-03-19T19:05:21.829Z,7.20
2023-03-19T19:07:48.712Z,7.10
2023-03-19T19:10:15.974Z,7.10
2023-03-19T19:12:45.051Z,6.90
2023-03-19T19:15:20.775Z,6.80
2023-03-19T19:17:48.107Z,6.70
2023-03-19T19:20:16.530Z,6.60
2023-03-19T19:22:44.852Z,6.60
2023-03-19T19:25:16.797Z,6.40
2023-03-19T19:27:45.219Z,6.20
2023-03-19T19:30:18.794Z,6.10
2023-03-19T19:32:46.292Z,6.00
2023-03-19T19:35:21.676Z,6.00
2023-03-19T19:37:51.700Z,6.00
2023-03-19T19:40:19.825Z,6.00
2023-03-19T19:42:50.946Z,5.90
2023-03-19T19:45:30.271Z,5.90
2023-03-19T19:47:57.745Z,5.90
2023-03-19T19:50:25.769Z,5.80
2023-03-19T19:52:54.404Z,5.80
2023-03-19T19:55:21.825Z,5.80
2023-03-19T19:57:48.942Z,5.70
2023-03-19T20:00:19.093Z,5.70
2023-03-19T20:02:47.350Z,5.60
2023-03-19T20:05:19.662Z,5.70
2023-03-19T20:07:46.673Z,5.70
2023-03-19T20:10:18.212Z,5.80
2023-03-19T20:12:47.072Z,5.90
2023-03-19T20:15:18.619Z,5.90
2023-03-19T20:17:45.910Z,6.00
2023-03-19T20:20:17.795Z,6.00
2023-03-19T20:22:45.108Z,6.10
2023-03-19T20:25:12.742Z,6.10
2023-03-19T20:27:41.248Z,6.10
2023-03-19T20:30:19.945Z,6.20
2023-03-19T20:32:48.125Z,6.20
2023-03-19T20:35:16.992Z,6.20
2023-03-19T20:37:44.227Z,6.20
2023-03-19T20:40:12.072Z,6.30
2023-03-19T20:42:41.158Z,6.40
2023-03-19T20:45:15.746Z,6.40
2023-03-19T20:47:42.500Z,6.40
2023-03-19T20:50:16.589Z,6.40
2023-03-19T20:52:43.329Z,6.50
2023-03-19T20:55:15.409Z,6.50
2023-03-19T20:57:45.648Z,6.40
2023-03-19T21:00:19.060Z,6.40
2023-03-19T21:02:46.262Z,6.50
2023-03-19T21:05:13.609Z,6.50
2023-03-19T21:07:40.780Z,6.50
2023-03-19T21:10:28.019Z,6.50
2023-03-19T21:12:56.756Z,6.40
2023-03-19T21:15:24.200Z,6.40
2023-03-19T21:17:50.949Z,6.50
2023-03-19T21:20:19.935Z,6.50
2023-03-19T21:22:48.439Z,6.50
2023-03-19T21:25:20.238Z,6.50
2023-03-19T21:27:50.052Z,6.50
2023-03-19T21:30:19.970Z,6.50
2023-03-19T21:32:47.021Z,6.50
2023-03-19T21:35:21.470Z,6.50
2023-03-19T21:37:48.863Z,6.50
2023-03-19T21:40:17.758Z,6.50
2023-03-19T21:42:48.004Z,6.60
2023-03-19T21:45:22.049Z,6.60
2023-03-19T21:47:48.763Z,6.60
2023-03-19T21:50:17.337Z,6.50
2023-03-19T21:52:57.869Z,6.60
2023-03-19T21:55:26.423Z,6.50
2023-03-19T21:57:56.639Z,6.60
2023-03-19T22:00:24.910Z,6.60
2023-03-19T22:02:51.970Z,6.50
2023-03-19T22:05:26.035Z,6.40
2023-03-19T22:07:53.956Z,6.30
2023-03-19T22:10:23.892Z,6.10
2023-03-19T22:12:51.414Z,6.10
2023-03-19T22:15:29.286Z,6.10
2023-03-19T22:17:56.392Z,6.00
2023-03-19T22:20:25.038Z,6.10
2023-03-19T22:22:52.332Z,6.10
2023-03-19T22:25:20.059Z,6.00
2023-03-19T22:27:48.748Z,6.00
2023-03-19T22:30:22.962Z,6.10
2023-03-19T22:32:52.167Z,6.10
2023-03-19T22:35:22.221Z,6.10
2023-03-19T22:37:48.990Z,6.10
2023-03-19T22:40:17.459Z,6.10
2023-03-19T22:42:46.064Z,6.20
2023-03-19T22:45:22.504Z,6.20
2023-03-19T22:47:51.135Z,6.10
2023-03-19T22:50:20.707Z,6.10
2023-03-19T22:52:47.488Z,6.20
2023-03-19T22:55:17.475Z,6.10
2023-03-19T22:57:44.322Z,6.10
2023-03-19T23:00:15.295Z,6.20
2023-03-19T23:02:42.148Z,6.10
2023-03-19T23:05:42.833Z,6.10
2023-03-19T23:08:16.077Z,6.10
2023-03-19T23:10:43.218Z,6.10
2023-03-19T23:13:10.547Z,6.10
2023-03-19T23:15:38.372Z,6.10
2023-03-19T23:18:13.587Z,6.00
2023-03-19T23:20:41.908Z,6.10
2023-03-19T23:23:11.754Z,6.00
2023-03-19T23:25:38.757Z,6.00
2023-03-19T23:28:05.929Z,6.00
2023-03-19T23:30:33.348Z,6.00
2023-03-19T23:33:02.621Z,6.00
2023-03-19T23:35:31.281Z,6.00
2023-03-19T23:37:59.471Z,5.90
2023-03-19T23:40:29.669Z,6.00
2023-03-19T23:42:57.705Z,5.90
2023-03-19T23:45:32.148Z,5.90
2023-03-19T23:48:00.910Z,5.90
2023-03-19T23:50:31.250Z,5.90
2023-03-19T23:53:00.105Z,5.90
2023-03-19T23:55:27.636Z,5.90
2023-03-19T23:57:54.695Z,5.90
